sensor_id;sensor_type;location;lat;lon;timestamp;temperature;humidity
41405;DHT22;27146;51.788;8.824;2022-08-19T00:02:23;20.00;99.90
41405;DHT22;27146;51.788;8.824;2022-08-19T00:04:49;20.00;99.90
41405;DHT22;27146;51.788;8.824;2022-08-19T00:07:18;19.90;99.90
41405;DHT22;27146;51.788;8.824;2022-08-19T00:09:44;19.80;99.90
41405;DHT22;27146;51.788;8.824;2022-08-19T00:12:09;19.90;99.90
41405;DHT22;27146;51.788;8.824;2022-08-19T00:14:35;19.70;99.90
41405;DHT22;27146;51.788;8.824;2022-08-19T00:17:02;19.60;99.90
41405;DHT22;27146;51.788;8.824;2022-08-19T00:19:28;19.60;99.90
41405;DHT22;27146;51.788;8.824;2022-08-19T00:21:53;19.60;99.90
41405;DHT22;27146;51.788;8.824;2022-08-19T00:24:21;19.80;99.90
41405;DHT22;27146;51.788;8.824;2022-08-19T00:26:48;19.70;99.90
41405;DHT22;27146;51.788;8.824;2022-08-19T00:29:16;19.60;99.90
41405;DHT22;27146;51.788;8.824;2022-08-19T00:31:42;19.50;99.90
41405;DHT22;27146;51.788;8.824;2022-08-19T00:34:08;19.60;99.90
41405;DHT22;27146;51.788;8.824;2022-08-19T00:36:34;19.60;99.90
41405;DHT22;27146;51.788;8.824;2022-08-19T00:39:00;19.70;99.90
41405;DHT22;27146;51.788;8.824;2022-08-19T00:41:26;19.80;99.90
41405;DHT22;27146;51.788;8.824;2022-08-19T00:44:03;19.70;99.90
41405;DHT22;27146;51.788;8.824;2022-08-19T00:46:29;19.70;99.90
41405;DHT22;27146;51.788;8.824;2022-08-19T00:48:56;19.70;99.90
41405;DHT22;27146;51.788;8.824;2022-08-19T00:51:24;19.70;99.90
41405;DHT22;27146;51.788;8.824;2022-08-19T00:53:52;19.80;99.90
41405;DHT22;27146;51.788;8.824;2022-08-19T00:56:17;19.80;99.90
41405;DHT22;27146;51.788;8.824;2022-08-19T00:58:43;19.70;99.90
41405;DHT22;27146;51.788;8.824;2022-08-19T01:01:09;19.70;99.90
41405;DHT22;27146;51.788;8.824;2022-08-19T01:03:34;19.60;99.90
41405;DHT22;27146;51.788;8.824;2022-08-19T01:06:00;19.50;99.90
41405;DHT22;27146;51.788;8.824;2022-08-19T01:08:25;19.50;99.90
41405;DHT22;27146;51.788;8.824;2022-08-19T01:10:55;19.40;99.90
41405;DHT22;27146;51.788;8.824;2022-08-19T01:13:24;19.30;99.90
41405;DHT22;27146;51.788;8.824;2022-08-19T01:15:57;19.30;99.90
41405;DHT22;27146;51.788;8.824;2022-08-19T01:18:25;19.20;99.90
41405;DHT22;27146;51.788;8.824;2022-08-19T01:20:54;19.30;99.90
41405;DHT22;27146;51.788;8.824;2022-08-19T01:23:21;19.20;99.90
41405;DHT22;27146;51.788;8.824;2022-08-19T01:25:52;19.20;99.90
41405;DHT22;27146;51.788;8.824;2022-08-19T01:28:22;19.30;99.90
41405;DHT22;27146;51.788;8.824;2022-08-19T01:30:48;19.20;99.90
41405;DHT22;27146;51.788;8.824;2022-08-19T01:33:14;19.00;99.90
41405;DHT22;27146;51.788;8.824;2022-08-19T01:35:41;18.90;99.90
41405;DHT22;27146;51.788;8.824;2022-08-19T01:38:10;19.00;99.90
41405;DHT22;27146;51.788;8.824;2022-08-19T01:40:38;19.00;99.90
41405;DHT22;27146;51.788;8.824;2022-08-19T01:43:04;19.10;99.90
41405;DHT22;27146;51.788;8.824;2022-08-19T01:45:33;19.10;99.90
41405;DHT22;27146;51.788;8.824;2022-08-19T01:47:59;19.00;99.90
41405;DHT22;27146;51.788;8.824;2022-08-19T01:50:25;18.90;99.90
41405;DHT22;27146;51.788;8.824;2022-08-19T01:52:51;18.80;99.90
41405;DHT22;27146;51.788;8.824;2022-08-19T01:55:19;18.60;99.90
41405;DHT22;27146;51.788;8.824;2022-08-19T01:57:50;18.40;99.90
41405;DHT22;27146;51.788;8.824;2022-08-19T02:00:17;18.30;99.90
41405;DHT22;27146;51.788;8.824;2022-08-19T02:02:43;18.30;99.90
41405;DHT22;27146;51.788;8.824;2022-08-19T02:05:10;18.30;99.90
41405;DHT22;27146;51.788;8.824;2022-08-19T02:07:36;18.50;99.90
41405;DHT22;27146;51.788;8.824;2022-08-19T02:10:08;18.60;99.90
41405;DHT22;27146;51.788;8.824;2022-08-19T02:12:34;18.70;99.90
41405;DHT22;27146;51.788;8.824;2022-08-19T02:15:00;18.70;99.90
41405;DHT22;27146;51.788;8.824;2022-08-19T02:17:27;18.70;99.90
41405;DHT22;27146;51.788;8.824;2022-08-19T02:19:54;18.60;99.90
41405;DHT22;27146;51.788;8.824;2022-08-19T02:22:20;18.60;99.90
41405;DHT22;27146;51.788;8.824;2022-08-19T02:24:45;18.50;99.90
41405;DHT22;27146;51.788;8.824;2022-08-19T02:27:11;18.50;99.90
41405;DHT22;27146;51.788;8.824;2022-08-19T02:29:37;18.60;99.90
41405;DHT22;27146;51.788;8.824;2022-08-19T02:32:02;18.50;99.90
41405;DHT22;27146;51.788;8.824;2022-08-19T02:34:30;18.30;99.90
41405;DHT22;27146;51.788;8.824;2022-08-19T02:36:55;18.20;99.90
41405;DHT22;27146;51.788;8.824;2022-08-19T02:39:21;18.20;99.90
41405;DHT22;27146;51.788;8.824;2022-08-19T02:41:46;18.30;99.90
41405;DHT22;27146;51.788;8.824;2022-08-19T02:44:12;18.30;99.90
41405;DHT22;27146;51.788;8.824;2022-08-19T02:46:38;18.20;99.90
41405;DHT22;27146;51.788;8.824;2022-08-19T02:49:05;18.00;99.90
41405;DHT22;27146;51.788;8.824;2022-08-19T02:51:37;18.00;99.90
41405;DHT22;27146;51.788;8.824;2022-08-19T02:54:04;17.90;99.90
41405;DHT22;27146;51.788;8.824;2022-08-19T02:56:30;17.80;99.90
41405;DHT22;27146;51.788;8.824;2022-08-19T02:58:57;17.70;99.90
41405;DHT22;27146;51.788;8.824;2022-08-19T03:01:30;17.80;99.90
41405;DHT22;27146;51.788;8.824;2022-08-19T03:03:57;17.90;99.90
41405;DHT22;27146;51.788;8.824;2022-08-19T03:06:24;17.80;99.90
41405;DHT22;27146;51.788;8.824;2022-08-19T03:08:50;17.80;99.90
41405;DHT22;27146;51.788;8.824;2022-08-19T03:11:20;18.00;99.90
41405;DHT22;27146;51.788;8.824;2022-08-19T03:13:46;18.10;99.90
41405;DHT22;27146;51.788;8.824;2022-08-19T03:16:16;18.00;99.90
41405;DHT22;27146;51.788;8.824;2022-08-19T03:18:42;17.90;99.90
41405;DHT22;27146;51.788;8.824;2022-08-19T03:21:08;17.90;99.90
41405;DHT22;27146;51.788;8.824;2022-08-19T03:23:35;17.90;99.90
41405;DHT22;27146;51.788;8.824;2022-08-19T03:26:04;17.90;99.90
41405;DHT22;27146;51.788;8.824;2022-08-19T03:28:30;17.90;99.90
41405;DHT22;27146;51.788;8.824;2022-08-19T03:30:59;17.90;99.90
41405;DHT22;27146;51.788;8.824;2022-08-19T03:33:26;17.90;99.90
41405;DHT22;27146;51.788;8.824;2022-08-19T03:36:14;17.90;99.90
41405;DHT22;27146;51.788;8.824;2022-08-19T03:38:42;17.80;99.90
41405;DHT22;27146;51.788;8.824;2022-08-19T03:41:14;17.80;99.90
41405;DHT22;27146;51.788;8.824;2022-08-19T03:43:41;17.80;99.90
41405;DHT22;27146;51.788;8.824;2022-08-19T03:46:13;17.60;99.90
41405;DHT22;27146;51.788;8.824;2022-08-19T03:48:41;17.50;99.90
41405;DHT22;27146;51.788;8.824;2022-08-19T03:51:14;17.50;99.90
41405;DHT22;27146;51.788;8.824;2022-08-19T03:53:40;17.50;99.90
41405;DHT22;27146;51.788;8.824;2022-08-19T03:56:08;17.40;99.90
41405;DHT22;27146;51.788;8.824;2022-08-19T03:58:34;17.40;99.90
41405;DHT22;27146;51.788;8.824;2022-08-19T04:01:00;17.50;99.90
41405;DHT22;27146;51.788;8.824;2022-08-19T04:03:26;17.60;99.90
41405;DHT22;27146;51.788;8.824;2022-08-19T04:05:54;17.60;99.90
41405;DHT22;27146;51.788;8.824;2022-08-19T04:08:20;17.60;99.90
41405;DHT22;27146;51.788;8.824;2022-08-19T04:10:48;17.50;99.90
41405;DHT22;27146;51.788;8.824;2022-08-19T04:13:16;17.40;99.90
41405;DHT22;27146;51.788;8.824;2022-08-19T04:15:43;17.20;99.90
41405;DHT22;27146;51.788;8.824;2022-08-19T04:18:10;16.90;99.90
41405;DHT22;27146;51.788;8.824;2022-08-19T04:20:44;16.80;99.90
41405;DHT22;27146;51.788;8.824;2022-08-19T04:23:11;16.90;99.90
41405;DHT22;27146;51.788;8.824;2022-08-19T04:25:38;17.10;99.90
41405;DHT22;27146;51.788;8.824;2022-08-19T04:28:03;17.10;99.90
41405;DHT22;27146;51.788;8.824;2022-08-19T04:30:29;17.20;99.90
41405;DHT22;27146;51.788;8.824;2022-08-19T04:32:54;17.20;99.90
41405;DHT22;27146;51.788;8.824;2022-08-19T04:35:20;17.10;99.90
41405;DHT22;27146;51.788;8.824;2022-08-19T04:37:45;16.90;99.90
41405;DHT22;27146;51.788;8.824;2022-08-19T04:40:11;16.80;99.90
41405;DHT22;27146;51.788;8.824;2022-08-19T04:42:55;16.80;99.90
41405;DHT22;27146;51.788;8.824;2022-08-19T04:45:21;16.80;99.90
41405;DHT22;27146;51.788;8.824;2022-08-19T04:47:48;17.10;99.90
41405;DHT22;27146;51.788;8.824;2022-08-19T04:50:14;17.30;99.90
41405;DHT22;27146;51.788;8.824;2022-08-19T04:52:40;17.40;99.90
41405;DHT22;27146;51.788;8.824;2022-08-19T04:55:10;17.50;99.90
41405;DHT22;27146;51.788;8.824;2022-08-19T04:57:36;17.60;99.90
41405;DHT22;27146;51.788;8.824;2022-08-19T05:00:07;17.70;99.90
41405;DHT22;27146;51.788;8.824;2022-08-19T05:02:32;17.50;99.90
41405;DHT22;27146;51.788;8.824;2022-08-19T05:04:59;17.30;99.90
41405;DHT22;27146;51.788;8.824;2022-08-19T05:07:25;17.00;99.90
41405;DHT22;27146;51.788;8.824;2022-08-19T05:09:51;16.80;99.90
41405;DHT22;27146;51.788;8.824;2022-08-19T05:12:17;16.80;99.90
41405;DHT22;27146;51.788;8.824;2022-08-19T05:14:43;16.90;99.90
41405;DHT22;27146;51.788;8.824;2022-08-19T05:17:10;17.20;99.90
41405;DHT22;27146;51.788;8.824;2022-08-19T05:19:35;17.60;99.90
41405;DHT22;27146;51.788;8.824;2022-08-19T05:22:19;17.20;99.90
41405;DHT22;27146;51.788;8.824;2022-08-19T05:25:27;17.00;99.90
41405;DHT22;27146;51.788;8.824;2022-08-19T05:27:52;17.30;99.90
41405;DHT22;27146;51.788;8.824;2022-08-19T05:30:18;17.50;99.90
41405;DHT22;27146;51.788;8.824;2022-08-19T05:32:43;17.70;99.90
41405;DHT22;27146;51.788;8.824;2022-08-19T05:35:09;17.70;99.90
41405;DHT22;27146;51.788;8.824;2022-08-19T05:37:35;17.80;99.90
41405;DHT22;27146;51.788;8.824;2022-08-19T05:40:01;17.80;99.90
41405;DHT22;27146;51.788;8.824;2022-08-19T05:42:27;17.70;99.90
41405;DHT22;27146;51.788;8.824;2022-08-19T05:44:53;17.60;99.90
41405;DHT22;27146;51.788;8.824;2022-08-19T05:47:19;17.40;99.90
41405;DHT22;27146;51.788;8.824;2022-08-19T05:49:45;17.30;99.90
41405;DHT22;27146;51.788;8.824;2022-08-19T05:52:12;17.40;99.90
41405;DHT22;27146;51.788;8.824;2022-08-19T05:54:39;17.40;99.90
41405;DHT22;27146;51.788;8.824;2022-08-19T05:57:07;17.40;99.90
41405;DHT22;27146;51.788;8.824;2022-08-19T05:59:33;17.50;99.90
41405;DHT22;27146;51.788;8.824;2022-08-19T06:02:01;17.70;99.90
41405;DHT22;27146;51.788;8.824;2022-08-19T06:04:26;17.90;99.90
41405;DHT22;27146;51.788;8.824;2022-08-19T06:06:53;18.10;99.90
41405;DHT22;27146;51.788;8.824;2022-08-19T06:09:20;18.30;99.90
41405;DHT22;27146;51.788;8.824;2022-08-19T06:11:48;18.40;99.90
41405;DHT22;27146;51.788;8.824;2022-08-19T06:14:19;18.40;99.90
41405;DHT22;27146;51.788;8.824;2022-08-19T06:16:46;18.50;99.90
41405;DHT22;27146;51.788;8.824;2022-08-19T06:19:16;18.40;99.90
41405;DHT22;27146;51.788;8.824;2022-08-19T06:21:45;18.50;99.90
41405;DHT22;27146;51.788;8.824;2022-08-19T06:24:14;18.40;99.90
41405;DHT22;27146;51.788;8.824;2022-08-19T06:26:41;18.40;99.90
41405;DHT22;27146;51.788;8.824;2022-08-19T06:29:09;18.40;99.90
41405;DHT22;27146;51.788;8.824;2022-08-19T06:31:35;18.70;99.90
41405;DHT22;27146;51.788;8.824;2022-08-19T06:34:03;19.00;99.90
41405;DHT22;27146;51.788;8.824;2022-08-19T06:36:35;19.10;99.90
41405;DHT22;27146;51.788;8.824;2022-08-19T06:39:04;19.10;99.90
41405;DHT22;27146;51.788;8.824;2022-08-19T06:41:31;19.10;99.90
41405;DHT22;27146;51.788;8.824;2022-08-19T06:43:57;19.00;99.90
41405;DHT22;27146;51.788;8.824;2022-08-19T06:46:22;18.90;99.90
41405;DHT22;27146;51.788;8.824;2022-08-19T06:48:49;18.80;99.90
41405;DHT22;27146;51.788;8.824;2022-08-19T06:51:16;18.70;99.90
41405;DHT22;27146;51.788;8.824;2022-08-19T06:53:45;18.80;99.90
41405;DHT22;27146;51.788;8.824;2022-08-19T06:56:12;18.90;99.90
41405;DHT22;27146;51.788;8.824;2022-08-19T06:58:38;18.90;99.90
41405;DHT22;27146;51.788;8.824;2022-08-19T07:01:04;18.90;99.90
41405;DHT22;27146;51.788;8.824;2022-08-19T07:03:31;19.10;99.90
41405;DHT22;27146;51.788;8.824;2022-08-19T07:06:02;19.20;99.90
41405;DHT22;27146;51.788;8.824;2022-08-19T07:08:28;19.40;99.90
41405;DHT22;27146;51.788;8.824;2022-08-19T07:10:54;19.50;99.90
41405;DHT22;27146;51.788;8.824;2022-08-19T07:13:19;19.50;99.90
41405;DHT22;27146;51.788;8.824;2022-08-19T07:15:46;19.40;99.90
41405;DHT22;27146;51.788;8.824;2022-08-19T07:18:12;19.40;99.90
41405;DHT22;27146;51.788;8.824;2022-08-19T07:20:39;19.50;99.90
41405;DHT22;27146;51.788;8.824;2022-08-19T07:23:04;20.20;99.90
41405;DHT22;27146;51.788;8.824;2022-08-19T07:25:30;20.50;99.90
41405;DHT22;27146;51.788;8.824;2022-08-19T07:27:55;20.40;99.90
41405;DHT22;27146;51.788;8.824;2022-08-19T07:30:21;20.40;99.90
41405;DHT22;27146;51.788;8.824;2022-08-19T07:32:48;20.30;99.90
41405;DHT22;27146;51.788;8.824;2022-08-19T07:35:15;20.30;99.90
41405;DHT22;27146;51.788;8.824;2022-08-19T07:37:44;20.00;99.90
41405;DHT22;27146;51.788;8.824;2022-08-19T07:40:10;20.00;99.90
41405;DHT22;27146;51.788;8.824;2022-08-19T07:42:36;20.50;99.90
41405;DHT22;27146;51.788;8.824;2022-08-19T07:45:03;21.10;99.90
41405;DHT22;27146;51.788;8.824;2022-08-19T07:47:29;21.50;99.90
41405;DHT22;27146;51.788;8.824;2022-08-19T07:49:56;22.10;99.90
41405;DHT22;27146;51.788;8.824;2022-08-19T07:52:21;22.60;99.90
41405;DHT22;27146;51.788;8.824;2022-08-19T07:54:47;22.40;99.90
41405;DHT22;27146;51.788;8.824;2022-08-19T07:57:13;22.60;99.90
41405;DHT22;27146;51.788;8.824;2022-08-19T07:59:38;22.50;99.90
41405;DHT22;27146;51.788;8.824;2022-08-19T08:02:04;22.60;99.90
41405;DHT22;27146;51.788;8.824;2022-08-19T08:04:31;22.90;99.90
41405;DHT22;27146;51.788;8.824;2022-08-19T08:07:15;22.80;99.90
41405;DHT22;27146;51.788;8.824;2022-08-19T08:10:00;22.10;99.90
41405;DHT22;27146;51.788;8.824;2022-08-19T08:12:30;22.30;99.90
41405;DHT22;27146;51.788;8.824;2022-08-19T08:14:59;22.70;99.90
41405;DHT22;27146;51.788;8.824;2022-08-19T08:17:28;22.60;99.90
41405;DHT22;27146;51.788;8.824;2022-08-19T08:19:54;23.00;99.90
41405;DHT22;27146;51.788;8.824;2022-08-19T08:22:21;23.10;99.90
41405;DHT22;27146;51.788;8.824;2022-08-19T08:25:17;23.40;99.90
41405;DHT22;27146;51.788;8.824;2022-08-19T08:27:45;23.40;99.90
41405;DHT22;27146;51.788;8.824;2022-08-19T08:30:21;23.50;99.90
41405;DHT22;27146;51.788;8.824;2022-08-19T08:32:48;23.80;99.90
41405;DHT22;27146;51.788;8.824;2022-08-19T08:35:16;23.80;99.90
41405;DHT22;27146;51.788;8.824;2022-08-19T08:37:44;23.70;99.90
41405;DHT22;27146;51.788;8.824;2022-08-19T08:43:23;23.80;99.90
41405;DHT22;27146;51.788;8.824;2022-08-19T08:45:49;24.50;99.90
41405;DHT22;27146;51.788;8.824;2022-08-19T08:48:22;24.90;99.90
41405;DHT22;27146;51.788;8.824;2022-08-19T08:50:50;25.00;99.90
41405;DHT22;27146;51.788;8.824;2022-08-19T08:53:19;24.60;99.90
41405;DHT22;27146;51.788;8.824;2022-08-19T08:55:46;24.60;99.90
41405;DHT22;27146;51.788;8.824;2022-08-19T08:58:31;24.60;99.90
41405;DHT22;27146;51.788;8.824;2022-08-19T09:00:58;24.10;99.90
41405;DHT22;27146;51.788;8.824;2022-08-19T09:03:26;24.70;99.90
41405;DHT22;27146;51.788;8.824;2022-08-19T09:06:03;25.30;99.90
41405;DHT22;27146;51.788;8.824;2022-08-19T09:08:48;24.60;99.90
41405;DHT22;27146;51.788;8.824;2022-08-19T09:14:20;24.10;99.90
41405;DHT22;27146;51.788;8.824;2022-08-19T09:16:49;24.40;99.90
41405;DHT22;27146;51.788;8.824;2022-08-19T09:19:15;24.40;99.90
41405;DHT22;27146;51.788;8.824;2022-08-19T09:21:42;25.10;99.90
41405;DHT22;27146;51.788;8.824;2022-08-19T09:24:08;25.30;99.90
41405;DHT22;27146;51.788;8.824;2022-08-19T09:26:33;25.70;99.90
41405;DHT22;27146;51.788;8.824;2022-08-19T09:29:00;25.60;99.90
41405;DHT22;27146;51.788;8.824;2022-08-19T09:31:28;25.70;99.90
41405;DHT22;27146;51.788;8.824;2022-08-19T09:33:54;26.00;99.90
41405;DHT22;27146;51.788;8.824;2022-08-19T09:36:24;26.40;99.90
41405;DHT22;27146;51.788;8.824;2022-08-19T09:38:50;26.60;99.90
41405;DHT22;27146;51.788;8.824;2022-08-19T09:41:19;26.50;99.90
41405;DHT22;27146;51.788;8.824;2022-08-19T09:43:47;26.00;99.90
41405;DHT22;27146;51.788;8.824;2022-08-19T09:46:13;26.20;99.90
41405;DHT22;27146;51.788;8.824;2022-08-19T09:48:40;26.70;99.90
41405;DHT22;27146;51.788;8.824;2022-08-19T09:51:12;26.60;99.90
41405;DHT22;27146;51.788;8.824;2022-08-19T09:53:41;26.40;99.90
41405;DHT22;27146;51.788;8.824;2022-08-19T09:56:07;26.50;99.90
41405;DHT22;27146;51.788;8.824;2022-08-19T09:58:33;26.50;99.90
41405;DHT22;27146;51.788;8.824;2022-08-19T10:01:00;26.20;99.90
41405;DHT22;27146;51.788;8.824;2022-08-19T10:03:28;25.80;99.90
41405;DHT22;27146;51.788;8.824;2022-08-19T10:05:54;26.20;99.90
41405;DHT22;27146;51.788;8.824;2022-08-19T10:08:23;26.40;99.90
41405;DHT22;27146;51.788;8.824;2022-08-19T10:10:49;26.80;99.90
41405;DHT22;27146;51.788;8.824;2022-08-19T10:13:19;26.40;99.90
41405;DHT22;27146;51.788;8.824;2022-08-19T10:15:48;26.10;99.90
41405;DHT22;27146;51.788;8.824;2022-08-19T10:18:16;26.60;99.90
41405;DHT22;27146;51.788;8.824;2022-08-19T10:20:43;26.70;99.90
41405;DHT22;27146;51.788;8.824;2022-08-19T10:23:11;26.80;99.90
41405;DHT22;27146;51.788;8.824;2022-08-19T10:25:37;26.70;99.90
41405;DHT22;27146;51.788;8.824;2022-08-19T10:28:03;26.60;99.90
41405;DHT22;27146;51.788;8.824;2022-08-19T10:30:29;26.80;99.90
41405;DHT22;27146;51.788;8.824;2022-08-19T10:32:55;26.80;99.90
41405;DHT22;27146;51.788;8.824;2022-08-19T10:35:20;26.70;99.90
41405;DHT22;27146;51.788;8.824;2022-08-19T10:37:46;26.40;99.90
41405;DHT22;27146;51.788;8.824;2022-08-19T10:40:11;26.50;99.90
41405;DHT22;27146;51.788;8.824;2022-08-19T10:42:37;27.10;99.90
41405;DHT22;27146;51.788;8.824;2022-08-19T10:45:05;27.50;99.90
41405;DHT22;27146;51.788;8.824;2022-08-19T10:47:32;27.80;99.90
41405;DHT22;27146;51.788;8.824;2022-08-19T10:49:58;27.60;99.90
41405;DHT22;27146;51.788;8.824;2022-08-19T10:52:44;27.90;99.90
41405;DHT22;27146;51.788;8.824;2022-08-19T10:55:10;28.20;99.90
41405;DHT22;27146;51.788;8.824;2022-08-19T10:57:54;28.00;99.90
41405;DHT22;27146;51.788;8.824;2022-08-19T11:00:21;28.20;99.90
41405;DHT22;27146;51.788;8.824;2022-08-19T11:02:47;28.20;99.90
41405;DHT22;27146;51.788;8.824;2022-08-19T11:05:13;28.10;99.90
41405;DHT22;27146;51.788;8.824;2022-08-19T11:07:41;27.60;99.90
41405;DHT22;27146;51.788;8.824;2022-08-19T11:10:09;27.30;99.90
41405;DHT22;27146;51.788;8.824;2022-08-19T11:12:37;27.60;99.90
41405;DHT22;27146;51.788;8.824;2022-08-19T11:15:08;27.90;99.90
41405;DHT22;27146;51.788;8.824;2022-08-19T11:17:37;27.90;99.90
41405;DHT22;27146;51.788;8.824;2022-08-19T11:20:06;28.20;99.90
41405;DHT22;27146;51.788;8.824;2022-08-19T11:22:32;27.70;99.90
41405;DHT22;27146;51.788;8.824;2022-08-19T11:24:58;28.10;99.90
41405;DHT22;27146;51.788;8.824;2022-08-19T11:27:23;28.10;99.90
41405;DHT22;27146;51.788;8.824;2022-08-19T11:29:50;28.50;99.90
41405;DHT22;27146;51.788;8.824;2022-08-19T11:32:17;28.60;99.90
41405;DHT22;27146;51.788;8.824;2022-08-19T11:34:43;28.40;99.90
41405;DHT22;27146;51.788;8.824;2022-08-19T11:37:09;27.90;99.90
41405;DHT22;27146;51.788;8.824;2022-08-19T11:39:35;27.50;99.90
41405;DHT22;27146;51.788;8.824;2022-08-19T11:42:02;27.40;99.90
41405;DHT22;27146;51.788;8.824;2022-08-19T11:44:48;27.80;99.90
41405;DHT22;27146;51.788;8.824;2022-08-19T11:47:14;28.00;99.90
41405;DHT22;27146;51.788;8.824;2022-08-19T11:49:40;27.20;99.90
41405;DHT22;27146;51.788;8.824;2022-08-19T11:52:05;27.10;99.90
41405;DHT22;27146;51.788;8.824;2022-08-19T11:54:31;26.70;99.90
41405;DHT22;27146;51.788;8.824;2022-08-19T11:56:56;26.70;99.90
41405;DHT22;27146;51.788;8.824;2022-08-19T11:59:22;27.10;99.90
41405;DHT22;27146;51.788;8.824;2022-08-19T12:01:47;27.80;99.90
41405;DHT22;27146;51.788;8.824;2022-08-19T12:04:13;28.00;99.90
41405;DHT22;27146;51.788;8.824;2022-08-19T12:06:40;28.40;99.90
41405;DHT22;27146;51.788;8.824;2022-08-19T12:09:08;28.20;99.90
41405;DHT22;27146;51.788;8.824;2022-08-19T12:11:34;27.80;99.90
41405;DHT22;27146;51.788;8.824;2022-08-19T12:14:02;27.50;99.90
41405;DHT22;27146;51.788;8.824;2022-08-19T12:16:29;27.60;99.90
41405;DHT22;27146;51.788;8.824;2022-08-19T12:18:56;27.80;99.90
41405;DHT22;27146;51.788;8.824;2022-08-19T12:21:27;27.50;99.90
41405;DHT22;27146;51.788;8.824;2022-08-19T12:23:57;27.40;99.90
41405;DHT22;27146;51.788;8.824;2022-08-19T12:26:25;27.60;99.90
41405;DHT22;27146;51.788;8.824;2022-08-19T12:28:51;28.00;99.90
41405;DHT22;27146;51.788;8.824;2022-08-19T12:31:17;28.20;99.90
41405;DHT22;27146;51.788;8.824;2022-08-19T12:33:43;28.20;99.90
41405;DHT22;27146;51.788;8.824;2022-08-19T12:36:11;28.20;99.90
41405;DHT22;27146;51.788;8.824;2022-08-19T12:38:37;28.30;99.90
41405;DHT22;27146;51.788;8.824;2022-08-19T12:41:04;28.40;99.90
41405;DHT22;27146;51.788;8.824;2022-08-19T12:43:34;27.80;99.90
41405;DHT22;27146;51.788;8.824;2022-08-19T12:46:00;27.90;99.90
41405;DHT22;27146;51.788;8.824;2022-08-19T12:48:26;27.50;99.90
41405;DHT22;27146;51.788;8.824;2022-08-19T12:50:51;27.40;99.90
41405;DHT22;27146;51.788;8.824;2022-08-19T12:53:17;27.70;99.90
41405;DHT22;27146;51.788;8.824;2022-08-19T12:55:42;27.70;99.90
41405;DHT22;27146;51.788;8.824;2022-08-19T12:58:09;27.90;99.90
41405;DHT22;27146;51.788;8.824;2022-08-19T13:00:34;27.70;99.90
41405;DHT22;27146;51.788;8.824;2022-08-19T13:03:00;27.70;99.90
41405;DHT22;27146;51.788;8.824;2022-08-19T13:05:29;27.80;99.90
41405;DHT22;27146;51.788;8.824;2022-08-19T13:07:58;27.80;99.90
41405;DHT22;27146;51.788;8.824;2022-08-19T13:10:31;27.90;99.90
41405;DHT22;27146;51.788;8.824;2022-08-19T13:13:00;28.30;99.90
41405;DHT22;27146;51.788;8.824;2022-08-19T13:15:26;28.00;99.90
41405;DHT22;27146;51.788;8.824;2022-08-19T13:17:54;27.80;99.90
41405;DHT22;27146;51.788;8.824;2022-08-19T13:20:21;27.60;99.90
41405;DHT22;27146;51.788;8.824;2022-08-19T13:22:47;28.00;99.90
41405;DHT22;27146;51.788;8.824;2022-08-19T13:25:14;28.00;99.90
41405;DHT22;27146;51.788;8.824;2022-08-19T13:27:42;28.40;99.90
41405;DHT22;27146;51.788;8.824;2022-08-19T13:30:11;28.10;99.90
41405;DHT22;27146;51.788;8.824;2022-08-19T13:32:55;27.70;99.90
41405;DHT22;27146;51.788;8.824;2022-08-19T13:35:40;27.80;99.90
41405;DHT22;27146;51.788;8.824;2022-08-19T13:38:06;27.70;99.90
41405;DHT22;27146;51.788;8.824;2022-08-19T13:40:32;27.80;99.90
41405;DHT22;27146;51.788;8.824;2022-08-19T13:43:02;27.90;99.90
41405;DHT22;27146;51.788;8.824;2022-08-19T13:45:29;27.80;99.90
41405;DHT22;27146;51.788;8.824;2022-08-19T13:47:56;27.50;99.90
41405;DHT22;27146;51.788;8.824;2022-08-19T13:50:25;27.50;99.90
41405;DHT22;27146;51.788;8.824;2022-08-19T13:52:51;27.50;99.90
41405;DHT22;27146;51.788;8.824;2022-08-19T13:55:17;27.40;99.90
41405;DHT22;27146;51.788;8.824;2022-08-19T13:57:42;27.50;99.90
41405;DHT22;27146;51.788;8.824;2022-08-19T14:00:16;27.70;99.90
41405;DHT22;27146;51.788;8.824;2022-08-19T14:02:46;27.70;99.90
41405;DHT22;27146;51.788;8.824;2022-08-19T14:05:14;27.80;99.90
41405;DHT22;27146;51.788;8.824;2022-08-19T14:07:40;28.20;99.90
41405;DHT22;27146;51.788;8.824;2022-08-19T14:10:08;28.30;99.90
41405;DHT22;27146;51.788;8.824;2022-08-19T14:12:34;28.70;99.90
41405;DHT22;27146;51.788;8.824;2022-08-19T14:15:00;28.70;99.80
41405;DHT22;27146;51.788;8.824;2022-08-19T14:17:27;28.70;99.90
41405;DHT22;27146;51.788;8.824;2022-08-19T14:20:01;28.50;99.90
41405;DHT22;27146;51.788;8.824;2022-08-19T14:22:29;28.60;99.90
41405;DHT22;27146;51.788;8.824;2022-08-19T14:24:56;28.90;99.90
41405;DHT22;27146;51.788;8.824;2022-08-19T14:27:22;28.80;99.90
41405;DHT22;27146;51.788;8.824;2022-08-19T14:29:49;28.60;99.90
41405;DHT22;27146;51.788;8.824;2022-08-19T14:32:15;28.60;99.90
41405;DHT22;27146;51.788;8.824;2022-08-19T14:34:40;28.40;99.90
41405;DHT22;27146;51.788;8.824;2022-08-19T14:37:06;28.30;99.90
41405;DHT22;27146;51.788;8.824;2022-08-19T14:39:31;28.20;99.90
41405;DHT22;27146;51.788;8.824;2022-08-19T14:41:57;27.80;99.90
41405;DHT22;27146;51.788;8.824;2022-08-19T14:44:24;27.60;99.90
41405;DHT22;27146;51.788;8.824;2022-08-19T14:46:49;27.60;99.90
41405;DHT22;27146;51.788;8.824;2022-08-19T14:49:15;27.60;99.90
41405;DHT22;27146;51.788;8.824;2022-08-19T14:51:41;27.60;99.90
41405;DHT22;27146;51.788;8.824;2022-08-19T14:54:06;27.30;99.90
41405;DHT22;27146;51.788;8.824;2022-08-19T14:56:32;27.20;99.90
41405;DHT22;27146;51.788;8.824;2022-08-19T14:58:58;27.00;99.90
41405;DHT22;27146;51.788;8.824;2022-08-19T15:01:26;26.90;99.90
41405;DHT22;27146;51.788;8.824;2022-08-19T15:03:53;27.10;99.90
41405;DHT22;27146;51.788;8.824;2022-08-19T15:06:21;27.10;99.90
41405;DHT22;27146;51.788;8.824;2022-08-19T15:08:47;27.30;99.90
41405;DHT22;27146;51.788;8.824;2022-08-19T15:11:15;27.40;99.90
41405;DHT22;27146;51.788;8.824;2022-08-19T15:13:43;27.30;99.90
41405;DHT22;27146;51.788;8.824;2022-08-19T15:16:09;27.30;99.90
41405;DHT22;27146;51.788;8.824;2022-08-19T15:18:36;27.40;99.90
41405;DHT22;27146;51.788;8.824;2022-08-19T15:21:02;27.30;99.90
41405;DHT22;27146;51.788;8.824;2022-08-19T15:23:27;27.30;99.90
41405;DHT22;27146;51.788;8.824;2022-08-19T15:25:53;27.10;99.90
41405;DHT22;27146;51.788;8.824;2022-08-19T15:28:25;26.90;99.90
41405;DHT22;27146;51.788;8.824;2022-08-19T15:30:51;26.90;99.90
41405;DHT22;27146;51.788;8.824;2022-08-19T15:33:17;26.90;99.90
41405;DHT22;27146;51.788;8.824;2022-08-19T15:35:46;26.90;99.90
41405;DHT22;27146;51.788;8.824;2022-08-19T15:38:12;27.10;99.90
41405;DHT22;27146;51.788;8.824;2022-08-19T15:40:39;27.20;99.90